sensor_id;sensor_type;location;lat;lon;timestamp;pressure;altitude;pressure_sealevel;temperature;humidity
60646;BME280;46462;32.608;-117.032;2023-08-24T00:01:23;98980.46;;;27.65;53.37
60646;BME280;46462;32.608;-117.032;2023-08-24T00:03:53;98981.31;;;27.70;53.33
60646;BME280;46462;32.608;-117.032;2023-08-24T00:06:24;98976.90;;;27.74;53.31
60646;BME280;46462;32.608;-117.032;2023-08-24T00:08:54;98977.96;;;27.78;53.22
60646;BME280;46462;32.608;-117.032;2023-08-24T00:11:25;98975.67;;;27.80;53.15
60646;BME280;46462;32.608;-117.032;2023-08-24T00:13:55;98982.69;;;27.84;53.24
60646;BME280;46462;32.608;-117.032;2023-08-24T00:16:26;98984.27;;;27.88;53.16
60646;BME280;46462;32.608;-117.032;2023-08-24T00:18:57;98993.10;;;27.91;53.11
60646;BME280;46462;32.608;-117.032;2023-08-24T00:21:27;98991.29;;;27.94;53.24
60646;BME280;46462;32.608;-117.032;2023-08-24T00:23:57;98991.50;;;27.97;53.21
60646;BME280;46462;32.608;-117.032;2023-08-24T00:26:28;98990.81;;;28.01;53.16
60646;BME280;46462;32.608;-117.032;2023-08-24T00:28:58;98984.00;;;28.03;53.16
60646;BME280;46462;32.608;-117.032;2023-08-24T00:31:29;98984.66;;;28.09;53.03
60646;BME280;46462;32.608;-117.032;2023-08-24T00:34:00;98987.19;;;28.12;52.87
60646;BME280;46462;32.608;-117.032;2023-08-24T00:36:30;98990.15;;;28.13;52.93
60646;BME280;46462;32.608;-117.032;2023-08-24T00:39:01;98990.07;;;28.15;52.99
60646;BME280;46462;32.608;-117.032;2023-08-24T00:41:31;98998.03;;;28.21;52.82
60646;BME280;46462;32.608;-117.032;2023-08-24T00:44:02;99002.82;;;28.30;52.64
60646;BME280;46462;32.608;-117.032;2023-08-24T00:46:33;99002.31;;;28.32;52.51
60646;BME280;46462;32.608;-117.032;2023-08-24T00:49:03;99005.46;;;28.32;52.61
60646;BME280;46462;32.608;-117.032;2023-08-24T00:51:35;99006.17;;;28.33;52.61
60646;BME280;46462;32.608;-117.032;2023-08-24T00:54:05;99009.02;;;28.34;52.67
60646;BME280;46462;32.608;-117.032;2023-08-24T00:56:35;99010.02;;;28.34;52.68
60646;BME280;46462;32.608;-117.032;2023-08-24T00:59:05;99009.39;;;28.36;52.64
60646;BME280;46462;32.608;-117.032;2023-08-24T01:01:36;99010.47;;;28.39;52.56
60646;BME280;46462;32.608;-117.032;2023-08-24T01:04:07;99013.08;;;28.41;52.50
60646;BME280;46462;32.608;-117.032;2023-08-24T01:06:37;99011.51;;;28.45;52.52
60646;BME280;46462;32.608;-117.032;2023-08-24T01:09:08;99012.41;;;28.46;52.51
60646;BME280;46462;32.608;-117.032;2023-08-24T01:11:49;99015.86;;;28.49;52.55
60646;BME280;46462;32.608;-117.032;2023-08-24T01:14:15;99022.57;;;28.53;52.63
60646;BME280;46462;32.608;-117.032;2023-08-24T01:16:42;99026.08;;;28.57;52.61
60646;BME280;46462;32.608;-117.032;2023-08-24T01:19:19;99023.31;;;28.57;52.69
60646;BME280;46462;32.608;-117.032;2023-08-24T01:21:41;99026.91;;;28.60;52.66
60646;BME280;46462;32.608;-117.032;2023-08-24T01:24:17;99027.61;;;28.61;52.66
60646;BME280;46462;32.608;-117.032;2023-08-24T01:26:42;99024.20;;;28.63;52.65
60646;BME280;46462;32.608;-117.032;2023-08-24T01:29:12;99029.23;;;28.64;52.62
60646;BME280;46462;32.608;-117.032;2023-08-24T01:31:43;99029.83;;;28.66;52.60
60646;BME280;46462;32.608;-117.032;2023-08-24T01:34:13;99029.64;;;28.66;52.65
60646;BME280;46462;32.608;-117.032;2023-08-24T01:36:44;99028.98;;;28.68;52.64
60646;BME280;46462;32.608;-117.032;2023-08-24T01:39:20;99032.16;;;28.67;52.65
60646;BME280;46462;32.608;-117.032;2023-08-24T01:41:47;99034.11;;;28.69;52.70
60646;BME280;46462;32.608;-117.032;2023-08-24T01:44:16;99038.29;;;28.70;52.73
60646;BME280;46462;32.608;-117.032;2023-08-24T01:46:46;99045.58;;;28.72;52.64
60646;BME280;46462;32.608;-117.032;2023-08-24T01:49:18;99050.05;;;28.71;52.71
60646;BME280;46462;32.608;-117.032;2023-08-24T01:51:47;99052.69;;;28.71;52.70
60646;BME280;46462;32.608;-117.032;2023-08-24T01:54:18;99053.49;;;28.71;52.76
60646;BME280;46462;32.608;-117.032;2023-08-24T01:56:48;99054.12;;;28.71;52.79
60646;BME280;46462;32.608;-117.032;2023-08-24T01:59:19;99057.61;;;28.70;52.86
60646;BME280;46462;32.608;-117.032;2023-08-24T02:01:49;99059.66;;;28.72;52.92
60646;BME280;46462;32.608;-117.032;2023-08-24T02:04:20;99060.21;;;28.72;52.90
60646;BME280;46462;32.608;-117.032;2023-08-24T02:06:50;99062.57;;;28.74;52.80
60646;BME280;46462;32.608;-117.032;2023-08-24T02:09:21;99063.32;;;28.74;52.81
60646;BME280;46462;32.608;-117.032;2023-08-24T02:11:51;99065.40;;;28.75;52.70
60646;BME280;46462;32.608;-117.032;2023-08-24T02:14:22;99071.21;;;28.75;52.64
60646;BME280;46462;32.608;-117.032;2023-08-24T02:16:52;99071.81;;;28.76;52.56
60646;BME280;46462;32.608;-117.032;2023-08-24T02:19:23;99072.80;;;28.77;52.46
60646;BME280;46462;32.608;-117.032;2023-08-24T02:21:54;99073.30;;;28.80;52.32
60646;BME280;46462;32.608;-117.032;2023-08-24T02:24:24;99074.73;;;28.81;52.18
60646;BME280;46462;32.608;-117.032;2023-08-24T02:26:55;99075.38;;;28.84;52.07
60646;BME280;46462;32.608;-117.032;2023-08-24T02:29:25;99073.70;;;28.84;52.14
60646;BME280;46462;32.608;-117.032;2023-08-24T02:31:56;99077.04;;;28.86;52.11
60646;BME280;46462;32.608;-117.032;2023-08-24T02:34:26;99078.80;;;28.86;52.13
60646;BME280;46462;32.608;-117.032;2023-08-24T02:36:57;99082.94;;;28.90;52.09
60646;BME280;46462;32.608;-117.032;2023-08-24T02:39:28;99085.06;;;28.90;52.17
60646;BME280;46462;32.608;-117.032;2023-08-24T02:41:58;99089.66;;;28.90;52.21
60646;BME280;46462;32.608;-117.032;2023-08-24T02:44:29;99095.29;;;28.88;52.26
60646;BME280;46462;32.608;-117.032;2023-08-24T02:46:59;99100.10;;;28.89;52.24
60646;BME280;46462;32.608;-117.032;2023-08-24T02:49:30;99103.47;;;28.88;52.30
60646;BME280;46462;32.608;-117.032;2023-08-24T02:52:00;99104.23;;;28.88;52.29
60646;BME280;46462;32.608;-117.032;2023-08-24T02:54:31;99107.18;;;28.84;52.55
60646;BME280;46462;32.608;-117.032;2023-08-24T02:57:01;99107.91;;;28.83;52.20
60646;BME280;46462;32.608;-117.032;2023-08-24T02:59:32;99108.56;;;28.81;52.37
60646;BME280;46462;32.608;-117.032;2023-08-24T03:02:03;99109.60;;;28.81;52.28
60646;BME280;46462;32.608;-117.032;2023-08-24T03:04:33;99113.95;;;28.81;52.59
60646;BME280;46462;32.608;-117.032;2023-08-24T03:07:04;99114.10;;;28.81;52.54
60646;BME280;46462;32.608;-117.032;2023-08-24T03:09:35;99118.28;;;28.79;52.72
60646;BME280;46462;32.608;-117.032;2023-08-24T03:12:05;99120.26;;;28.81;52.72
60646;BME280;46462;32.608;-117.032;2023-08-24T03:14:36;99124.44;;;28.79;52.93
60646;BME280;46462;32.608;-117.032;2023-08-24T03:17:06;99125.07;;;28.81;52.81
60646;BME280;46462;32.608;-117.032;2023-08-24T03:19:37;99125.75;;;28.80;52.86
60646;BME280;46462;32.608;-117.032;2023-08-24T03:22:07;99127.47;;;28.81;52.74
60646;BME280;46462;32.608;-117.032;2023-08-24T03:24:38;99128.63;;;28.79;52.73
60646;BME280;46462;32.608;-117.032;2023-08-24T03:27:08;99131.54;;;28.81;52.75
60646;BME280;46462;32.608;-117.032;2023-08-24T03:29:39;99133.00;;;28.79;52.78
60646;BME280;46462;32.608;-117.032;2023-08-24T03:32:10;99135.85;;;28.80;52.69
60646;BME280;46462;32.608;-117.032;2023-08-24T03:34:40;99139.11;;;28.78;52.70
60646;BME280;46462;32.608;-117.032;2023-08-24T03:37:11;99142.67;;;28.78;52.68
60646;BME280;46462;32.608;-117.032;2023-08-24T03:39:41;99141.18;;;28.76;52.71
60646;BME280;46462;32.608;-117.032;2023-08-24T03:42:12;99139.21;;;28.78;52.58
60646;BME280;46462;32.608;-117.032;2023-08-24T03:44:42;99137.74;;;28.76;52.54
60646;BME280;46462;32.608;-117.032;2023-08-24T03:47:13;99145.32;;;28.83;52.40
60646;BME280;46462;32.608;-117.032;2023-08-24T03:49:44;99149.59;;;28.88;52.28
60646;BME280;46462;32.608;-117.032;2023-08-24T03:52:14;99154.54;;;28.84;52.33
60646;BME280;46462;32.608;-117.032;2023-08-24T03:54:45;99156.92;;;28.80;52.40
60646;BME280;46462;32.608;-117.032;2023-08-24T03:57:15;99161.06;;;28.80;52.40
60646;BME280;46462;32.608;-117.032;2023-08-24T03:59:46;99165.98;;;28.78;52.32
60646;BME280;46462;32.608;-117.032;2023-08-24T04:02:17;99171.29;;;28.80;52.31
60646;BME280;46462;32.608;-117.032;2023-08-24T04:04:47;99169.88;;;28.80;52.31
60646;BME280;46462;32.608;-117.032;2023-08-24T04:07:18;99168.40;;;28.81;52.29
60646;BME280;46462;32.608;-117.032;2023-08-24T04:09:48;99165.98;;;28.80;52.34
60646;BME280;46462;32.608;-117.032;2023-08-24T04:12:19;99164.90;;;28.81;52.24
60646;BME280;46462;32.608;-117.032;2023-08-24T04:14:49;99166.32;;;28.82;52.20
60646;BME280;46462;32.608;-117.032;2023-08-24T04:17:20;99167.74;;;28.82;52.15
60646;BME280;46462;32.608;-117.032;2023-08-24T04:19:50;99169.36;;;28.82;52.19
60646;BME280;46462;32.608;-117.032;2023-08-24T04:22:20;99169.72;;;28.82;52.11
60646;BME280;46462;32.608;-117.032;2023-08-24T04:24:51;99171.61;;;28.80;52.21
60646;BME280;46462;32.608;-117.032;2023-08-24T04:27:22;99170.15;;;28.81;52.12
60646;BME280;46462;32.608;-117.032;2023-08-24T04:29:52;99171.34;;;28.79;52.15
60646;BME280;46462;32.608;-117.032;2023-08-24T04:32:23;99172.90;;;28.80;52.08
60646;BME280;46462;32.608;-117.032;2023-08-24T04:34:53;99171.33;;;28.78;52.09
60646;BME280;46462;32.608;-117.032;2023-08-24T04:37:29;99172.32;;;28.79;52.05
60646;BME280;46462;32.608;-117.032;2023-08-24T04:39:55;99174.35;;;28.77;52.11
60646;BME280;46462;32.608;-117.032;2023-08-24T04:42:25;99175.93;;;28.78;52.06
60646;BME280;46462;32.608;-117.032;2023-08-24T04:44:55;99176.63;;;28.77;52.13
60646;BME280;46462;32.608;-117.032;2023-08-24T04:47:26;99178.87;;;28.77;52.10
60646;BME280;46462;32.608;-117.032;2023-08-24T04:49:57;99180.19;;;28.76;52.15
60646;BME280;46462;32.608;-117.032;2023-08-24T04:52:27;99177.07;;;28.77;52.14
60646;BME280;46462;32.608;-117.032;2023-08-24T04:54:58;99176.61;;;28.74;52.25
60646;BME280;46462;32.608;-117.032;2023-08-24T04:57:29;99180.71;;;28.72;52.32
60646;BME280;46462;32.608;-117.032;2023-08-24T04:59:59;99181.62;;;28.71;52.41
60646;BME280;46462;32.608;-117.032;2023-08-24T05:02:29;99180.46;;;28.72;52.32
60646;BME280;46462;32.608;-117.032;2023-08-24T05:05:00;99182.62;;;28.71;52.43
60646;BME280;46462;32.608;-117.032;2023-08-24T05:07:30;99182.52;;;28.72;52.37
60646;BME280;46462;32.608;-117.032;2023-08-24T05:10:01;99181.29;;;28.70;52.38
60646;BME280;46462;32.608;-117.032;2023-08-24T05:12:32;99182.08;;;28.71;52.40
60646;BME280;46462;32.608;-117.032;2023-08-24T05:15:02;99182.22;;;28.70;52.48
60646;BME280;46462;32.608;-117.032;2023-08-24T05:17:33;99181.46;;;28.70;52.51
60646;BME280;46462;32.608;-117.032;2023-08-24T05:20:08;99181.84;;;28.70;52.45
60646;BME280;46462;32.608;-117.032;2023-08-24T05:22:38;99185.25;;;28.70;52.43
60646;BME280;46462;32.608;-117.032;2023-08-24T05:25:08;99194.65;;;28.67;52.46
60646;BME280;46462;32.608;-117.032;2023-08-24T05:27:38;99198.05;;;28.69;52.38
60646;BME280;46462;32.608;-117.032;2023-08-24T05:30:09;99198.98;;;28.69;52.39
60646;BME280;46462;32.608;-117.032;2023-08-24T05:32:40;99196.00;;;28.68;52.46
60646;BME280;46462;32.608;-117.032;2023-08-24T05:35:10;99196.71;;;28.66;52.42
60646;BME280;46462;32.608;-117.032;2023-08-24T05:37:40;99198.90;;;28.65;52.46
60646;BME280;46462;32.608;-117.032;2023-08-24T05:40:11;99197.21;;;28.64;52.56
60646;BME280;46462;32.608;-117.032;2023-08-24T05:42:41;99193.81;;;28.63;52.49
60646;BME280;46462;32.608;-117.032;2023-08-24T05:45:12;99190.91;;;28.62;52.52
60646;BME280;46462;32.608;-117.032;2023-08-24T05:47:42;99188.85;;;28.63;52.40
60646;BME280;46462;32.608;-117.032;2023-08-24T05:50:13;99191.50;;;28.61;52.41
60646;BME280;46462;32.608;-117.032;2023-08-24T05:52:43;99191.59;;;28.62;52.40
60646;BME280;46462;32.608;-117.032;2023-08-24T05:55:14;99194.18;;;28.59;52.37
60646;BME280;46462;32.608;-117.032;2023-08-24T05:57:44;99194.20;;;28.59;52.45
60646;BME280;46462;32.608;-117.032;2023-08-24T06:00:16;99195.01;;;28.57;52.44
60646;BME280;46462;32.608;-117.032;2023-08-24T06:02:46;99196.32;;;28.59;52.29
60646;BME280;46462;32.608;-117.032;2023-08-24T06:05:17;99200.11;;;28.59;52.36
60646;BME280;46462;32.608;-117.032;2023-08-24T06:07:47;99201.75;;;28.60;52.31
60646;BME280;46462;32.608;-117.032;2023-08-24T06:10:18;99200.80;;;28.59;52.16
60646;BME280;46462;32.608;-117.032;2023-08-24T06:12:48;99201.90;;;28.60;52.21
60646;BME280;46462;32.608;-117.032;2023-08-24T06:15:19;99200.17;;;28.59;52.27
60646;BME280;46462;32.608;-117.032;2023-08-24T06:17:49;99198.68;;;28.61;52.12
60646;BME280;46462;32.608;-117.032;2023-08-24T06:20:20;99200.23;;;28.59;52.23
60646;BME280;46462;32.608;-117.032;2023-08-24T06:22:50;99200.80;;;28.59;52.18
60646;BME280;46462;32.608;-117.032;2023-08-24T06:25:21;99200.19;;;28.58;52.22
60646;BME280;46462;32.608;-117.032;2023-08-24T06:27:52;99200.06;;;28.59;52.12
60646;BME280;46462;32.608;-117.032;2023-08-24T06:30:22;99200.42;;;28.57;52.25
60646;BME280;46462;32.608;-117.032;2023-08-24T06:32:53;99199.44;;;28.57;52.10
60646;BME280;46462;32.608;-117.032;2023-08-24T06:35:23;99197.00;;;28.54;52.10
60646;BME280;46462;32.608;-117.032;2023-08-24T06:37:54;99194.51;;;28.53;52.27
60646;BME280;46462;32.608;-117.032;2023-08-24T06:40:25;99193.57;;;28.51;52.24
60646;BME280;46462;32.608;-117.032;2023-08-24T06:42:55;99192.65;;;28.51;52.18
60646;BME280;46462;32.608;-117.032;2023-08-24T06:45:26;99193.57;;;28.50;52.11
60646;BME280;46462;32.608;-117.032;2023-08-24T06:47:56;99191.77;;;28.49;52.19
60646;BME280;46462;32.608;-117.032;2023-08-24T06:50:27;99194.44;;;28.49;52.19
60646;BME280;46462;32.608;-117.032;2023-08-24T06:52:57;99190.22;;;28.47;52.24
60646;BME280;46462;32.608;-117.032;2023-08-24T06:55:27;99188.89;;;28.45;52.16
60646;BME280;46462;32.608;-117.032;2023-08-24T06:57:58;99192.42;;;28.45;52.11
60646;BME280;46462;32.608;-117.032;2023-08-24T07:00:28;99190.08;;;28.43;52.28
60646;BME280;46462;32.608;-117.032;2023-08-24T07:02:59;99186.85;;;28.43;52.20
60646;BME280;46462;32.608;-117.032;2023-08-24T07:05:29;99184.91;;;28.42;52.12
60646;BME280;46462;32.608;-117.032;2023-08-24T07:08:00;99180.18;;;28.43;52.20
60646;BME280;46462;32.608;-117.032;2023-08-24T07:10:30;99181.42;;;28.41;52.12
60646;BME280;46462;32.608;-117.032;2023-08-24T07:13:01;99181.98;;;28.40;52.19
60646;BME280;46462;32.608;-117.032;2023-08-24T07:15:32;99182.47;;;28.38;52.20
60646;BME280;46462;32.608;-117.032;2023-08-24T07:18:02;99187.19;;;28.40;52.05
60646;BME280;46462;32.608;-117.032;2023-08-24T07:20:33;99190.56;;;28.37;52.25
60646;BME280;46462;32.608;-117.032;2023-08-24T07:23:04;99189.67;;;28.36;52.25
60646;BME280;46462;32.608;-117.032;2023-08-24T07:25:35;99190.55;;;28.35;52.17
60646;BME280;46462;32.608;-117.032;2023-08-24T07:28:05;99192.94;;;28.36;52.23
60646;BME280;46462;32.608;-117.032;2023-08-24T07:30:36;99191.78;;;28.35;52.17
60646;BME280;46462;32.608;-117.032;2023-08-24T07:33:05;99191.17;;;28.34;52.13
60646;BME280;46462;32.608;-117.032;2023-08-24T07:35:36;99189.54;;;28.32;52.16
60646;BME280;46462;32.608;-117.032;2023-08-24T07:38:07;99187.94;;;28.32;52.03
60646;BME280;46462;32.608;-117.032;2023-08-24T07:40:37;99181.64;;;28.30;52.26
60646;BME280;46462;32.608;-117.032;2023-08-24T07:43:08;99176.80;;;28.30;52.08
60646;BME280;46462;32.608;-117.032;2023-08-24T07:45:38;99177.29;;;28.28;52.07
60646;BME280;46462;32.608;-117.032;2023-08-24T07:48:09;99179.27;;;28.28;52.04
60646;BME280;46462;32.608;-117.032;2023-08-24T07:50:40;99178.54;;;28.26;52.10
60646;BME280;46462;32.608;-117.032;2023-08-24T07:53:10;99178.01;;;28.26;52.07
60646;BME280;46462;32.608;-117.032;2023-08-24T07:55:41;99176.15;;;28.26;52.01
60646;BME280;46462;32.608;-117.032;2023-08-24T07:58:11;99177.46;;;28.28;51.95
60646;BME280;46462;32.608;-117.032;2023-08-24T08:00:41;99176.32;;;28.30;51.91
60646;BME280;46462;32.608;-117.032;2023-08-24T08:03:12;99176.25;;;28.30;51.79
60646;BME280;46462;32.608;-117.032;2023-08-24T08:05:42;99180.64;;;28.30;51.77
60646;BME280;46462;32.608;-117.032;2023-08-24T08:08:13;99183.97;;;28.30;51.74
60646;BME280;46462;32.608;-117.032;2023-08-24T08:10:44;99185.02;;;28.28;51.76
60646;BME280;46462;32.608;-117.032;2023-08-24T08:13:14;99182.11;;;28.28;51.78
60646;BME280;46462;32.608;-117.032;2023-08-24T08:15:44;99182.32;;;28.28;51.68
60646;BME280;46462;32.608;-117.032;2023-08-24T08:18:15;99182.34;;;28.27;51.68
60646;BME280;46462;32.608;-117.032;2023-08-24T08:20:50;99181.62;;;28.25;51.76
60646;BME280;46462;32.608;-117.032;2023-08-24T08:23:16;99176.78;;;28.23;51.83
60646;BME280;46462;32.608;-117.032;2023-08-24T08:25:47;99174.79;;;28.23;51.72
60646;BME280;46462;32.608;-117.032;2023-08-24T08:28:18;99172.05;;;28.25;51.67
60646;BME280;46462;32.608;-117.032;2023-08-24T08:30:49;99171.17;;;28.23;51.65
60646;BME280;46462;32.608;-117.032;2023-08-24T08:33:18;99175.40;;;28.24;51.61
60646;BME280;46462;32.608;-117.032;2023-08-24T08:35:49;99176.94;;;28.24;51.59
60646;BME280;46462;32.608;-117.032;2023-08-24T08:38:19;99177.04;;;28.23;51.55
60646;BME280;46462;32.608;-117.032;2023-08-24T08:40:51;99176.49;;;28.22;51.58
60646;BME280;46462;32.608;-117.032;2023-08-24T08:43:22;99174.62;;;28.19;51.68
60646;BME280;46462;32.608;-117.032;2023-08-24T08:45:52;99175.00;;;28.19;51.60
60646;BME280;46462;32.608;-117.032;2023-08-24T08:48:22;99175.30;;;28.19;51.60
60646;BME280;46462;32.608;-117.032;2023-08-24T08:50:53;99172.51;;;28.16;51.65
60646;BME280;46462;32.608;-117.032;2023-08-24T08:53:23;99172.25;;;28.16;51.64
60646;BME280;46462;32.608;-117.032;2023-08-24T08:55:55;99172.60;;;28.14;51.67
60646;BME280;46462;32.608;-117.032;2023-08-24T08:58:25;99176.34;;;28.11;51.70
60646;BME280;46462;32.608;-117.032;2023-08-24T09:00:55;99182.05;;;28.09;51.78
60646;BME280;46462;32.608;-117.032;2023-08-24T09:03:26;99186.45;;;28.08;51.78
60646;BME280;46462;32.608;-117.032;2023-08-24T09:05:57;99186.52;;;28.08;51.75
60646;BME280;46462;32.608;-117.032;2023-08-24T09:08:27;99190.15;;;28.07;51.79
60646;BME280;46462;32.608;-117.032;2023-08-24T09:10:59;99195.31;;;28.06;51.78
60646;BME280;46462;32.608;-117.032;2023-08-24T09:13:28;99201.81;;;28.06;51.81
60646;BME280;46462;32.608;-117.032;2023-08-24T09:16:04;99204.80;;;28.07;51.75
60646;BME280;46462;32.608;-117.032;2023-08-24T09:18:34;99208.96;;;28.07;51.73
60646;BME280;46462;32.608;-117.032;2023-08-24T09:20:59;99212.30;;;28.06;51.73
60646;BME280;46462;32.608;-117.032;2023-08-24T09:23:30;99213.40;;;28.06;51.73
60646;BME280;46462;32.608;-117.032;2023-08-24T09:26:00;99220.18;;;28.01;51.83
60646;BME280;46462;32.608;-117.032;2023-08-24T09:28:31;99223.42;;;28.01;51.75
60646;BME280;46462;32.608;-117.032;2023-08-24T09:31:02;99223.15;;;27.99;51.86
60646;BME280;46462;32.608;-117.032;2023-08-24T09:33:32;99222.64;;;28.01;51.78
60646;BME280;46462;32.608;-117.032;2023-08-24T09:36:06;99219.52;;;28.01;51.76
60646;BME280;46462;32.608;-117.032;2023-08-24T09:38:33;99217.90;;;28.03;51.70
60646;BME280;46462;32.608;-117.032;2023-08-24T09:41:04;99218.95;;;28.02;51.73
60646;BME280;46462;32.608;-117.032;2023-08-24T09:43:34;99215.73;;;28.00;51.70
60646;BME280;46462;32.608;-117.032;2023-08-24T09:46:05;99216.53;;;27.97;51.80
60646;BME280;46462;32.608;-117.032;2023-08-24T09:48:35;99219.04;;;27.97;51.79
60646;BME280;46462;32.608;-117.032;2023-08-24T09:51:06;99217.41;;;27.98;51.74
60646;BME280;46462;32.608;-117.032;2023-08-24T09:53:38;99213.17;;;27.96;51.73
60646;BME280;46462;32.608;-117.032;2023-08-24T09:56:09;99212.53;;;27.96;51.70
60646;BME280;46462;32.608;-117.032;2023-08-24T09:58:38;99210.49;;;27.99;51.58
60646;BME280;46462;32.608;-117.032;2023-08-24T10:01:08;99207.70;;;28.03;51.45
60646;BME280;46462;32.608;-117.032;2023-08-24T10:03:40;99207.38;;;28.01;51.48
60646;BME280;46462;32.608;-117.032;2023-08-24T10:06:11;99207.24;;;28.00;51.48
60646;BME280;46462;32.608;-117.032;2023-08-24T10:08:45;99201.47;;;28.00;51.48
60646;BME280;46462;32.608;-117.032;2023-08-24T10:11:11;99200.98;;;28.00;51.46
60646;BME280;46462;32.608;-117.032;2023-08-24T10:13:46;99196.72;;;27.91;51.61
60646;BME280;46462;32.608;-117.032;2023-08-24T10:16:13;99199.00;;;27.95;51.51
60646;BME280;46462;32.608;-117.032;2023-08-24T10:18:42;99200.91;;;27.96;51.44
60646;BME280;46462;32.608;-117.032;2023-08-24T10:21:13;99203.36;;;27.99;51.41
60646;BME280;46462;32.608;-117.032;2023-08-24T10:23:44;99204.68;;;27.98;51.40
60646;BME280;46462;32.608;-117.032;2023-08-24T10:26:14;99205.43;;;28.00;51.33
60646;BME280;46462;32.608;-117.032;2023-08-24T10:28:45;99207.44;;;27.98;51.29
60646;BME280;46462;32.608;-117.032;2023-08-24T10:31:15;99214.62;;;27.95;51.43
60646;BME280;46462;32.608;-117.032;2023-08-24T10:33:46;99214.94;;;27.95;51.32
60646;BME280;46462;32.608;-117.032;2023-08-24T10:36:16;99216.60;;;27.96;51.33
60646;BME280;46462;32.608;-117.032;2023-08-24T10:38:46;99217.82;;;27.94;51.31
60646;BME280;46462;32.608;-117.032;2023-08-24T10:41:17;99217.19;;;27.88;51.42
60646;BME280;46462;32.608;-117.032;2023-08-24T10:43:49;99216.88;;;27.92;51.36
60646;BME280;46462;32.608;-117.032;2023-08-24T10:46:18;99214.61;;;27.90;51.41
60646;BME280;46462;32.608;-117.032;2023-08-24T10:51:22;99209.89;;;27.93;51.25
60646;BME280;46462;32.608;-117.032;2023-08-24T10:53:53;99211.26;;;27.89;51.30
60646;BME280;46462;32.608;-117.032;2023-08-24T10:56:20;99212.23;;;27.84;51.35
60646;BME280;46462;32.608;-117.032;2023-08-24T11:01:21;99213.81;;;27.82;51.47
60646;BME280;46462;32.608;-117.032;2023-08-24T11:03:56;99214.53;;;27.80;51.45
60646;BME280;46462;32.608;-117.032;2023-08-24T11:06:23;99208.57;;;27.79;51.53
60646;BME280;46462;32.608;-117.032;2023-08-24T11:11:24;99201.05;;;27.71;51.58
60646;BME280;46462;32.608;-117.032;2023-08-24T11:18:55;99209.42;;;27.74;51.51
60646;BME280;46462;32.608;-117.032;2023-08-24T11:21:26;99215.41;;;27.74;51.44
60646;BME280;46462;32.608;-117.032;2023-08-24T11:23:56;99216.45;;;27.74;51.45
60646;BME280;46462;32.608;-117.032;2023-08-24T11:26:27;99216.79;;;27.71;51.46
60646;BME280;46462;32.608;-117.032;2023-08-24T11:28:57;99213.68;;;27.72;51.51
60646;BME280;46462;32.608;-117.032;2023-08-24T11:31:28;99218.32;;;27.67;51.26
60646;BME280;46462;32.608;-117.032;2023-08-24T11:33:58;99224.66;;;27.60;51.48
60646;BME280;46462;32.608;-117.032;2023-08-24T11:36:28;99223.00;;;27.61;51.58
60646;BME280;46462;32.608;-117.032;2023-08-24T11:39:00;99220.78;;;27.62;51.58
60646;BME280;46462;32.608;-117.032;2023-08-24T11:41:29;99221.22;;;27.60;51.38
60646;BME280;46462;32.608;-117.032;2023-08-24T11:44:01;99226.80;;;27.64;51.36
60646;BME280;46462;32.608;-117.032;2023-08-24T11:46:31;99229.17;;;27.56;51.39
60646;BME280;46462;32.608;-117.032;2023-08-24T11:49:01;99228.89;;;27.48;51.58
60646;BME280;46462;32.608;-117.032;2023-08-24T11:51:32;99230.29;;;27.55;51.67
60646;BME280;46462;32.608;-117.032;2023-08-24T11:54:03;99231.17;;;27.53;51.54
60646;BME280;46462;32.608;-117.032;2023-08-24T11:56:33;99230.78;;;27.58;51.42
60646;BME280;46462;32.608;-117.032;2023-08-24T11:59:04;99230.32;;;27.55;51.30
60646;BME280;46462;32.608;-117.032;2023-08-24T12:01:34;99233.21;;;27.50;51.46
60646;BME280;46462;32.608;-117.032;2023-08-24T12:04:05;99238.27;;;27.45;51.53
60646;BME280;46462;32.608;-117.032;2023-08-24T12:06:36;99240.42;;;27.43;51.22
60646;BME280;46462;32.608;-117.032;2023-08-24T12:09:06;99245.60;;;27.42;51.44
60646;BME280;46462;32.608;-117.032;2023-08-24T12:11:37;99246.53;;;27.48;51.16
60646;BME280;46462;32.608;-117.032;2023-08-24T12:14:16;99247.93;;;27.38;51.41
60646;BME280;46462;32.608;-117.032;2023-08-24T12:16:38;99247.22;;;27.32;51.39
60646;BME280;46462;32.608;-117.032;2023-08-24T12:19:08;99250.89;;;27.33;51.52
60646;BME280;46462;32.608;-117.032;2023-08-24T12:21:43;99250.08;;;27.29;51.45
60646;BME280;46462;32.608;-117.032;2023-08-24T12:24:14;99253.65;;;27.34;51.50
60646;BME280;46462;32.608;-117.032;2023-08-24T12:26:40;99254.09;;;27.27;51.40
60646;BME280;46462;32.608;-117.032;2023-08-24T12:29:10;99251.56;;;27.25;51.74
60646;BME280;46462;32.608;-117.032;2023-08-24T12:31:43;99254.77;;;27.25;51.54
60646;BME280;46462;32.608;-117.032;2023-08-24T12:34:15;99261.38;;;27.23;51.49
60646;BME280;46462;32.608;-117.032;2023-08-24T12:36:42;99264.48;;;27.20;51.63
60646;BME280;46462;32.608;-117.032;2023-08-24T12:39:13;99265.10;;;27.23;51.51
60646;BME280;46462;32.608;-117.032;2023-08-24T12:41:43;99270.70;;;27.17;51.80
60646;BME280;46462;32.608;-117.032;2023-08-24T12:44:13;99270.07;;;27.30;51.64
60646;BME280;46462;32.608;-117.032;2023-08-24T12:46:44;99274.71;;;27.29;51.37
60646;BME280;46462;32.608;-117.032;2023-08-24T12:49:15;99279.21;;;27.27;51.37
60646;BME280;46462;32.608;-117.032;2023-08-24T12:51:45;99284.94;;;27.12;51.65
60646;BME280;46462;32.608;-117.032;2023-08-24T12:54:16;99289.66;;;27.15;51.64
60646;BME280;46462;32.608;-117.032;2023-08-24T12:56:47;99295.49;;;27.00;51.92
60646;BME280;46462;32.608;-117.032;2023-08-24T12:59:17;99297.33;;;26.99;52.09